Philipsburg, Montana
Current Conditions -  °F | °C
As of 1:53 PM on Tuesday 21 Oct 2014 (Local Time) from KBTM Reporting Station
Light Rain Light Rain  
Wind Chill: 34°   Ceiling: 1300
Heat Index: 41°   Visibility: 9mi
Dew Point: 38°   Wind: 12mph
Humidity: 89%   Direction: 330°NNW
Pressure: 29.85"   Gusts: NA
Location:  46.33°N, 113.29°W
Report Text: KBTM 211953Z AUTO 33010KT 9SM -RA OVC013 05/03 A2985 RMK AO2 SLP096 P0005 T00500033
Loading
Personal Weather Stations






























Interactive Weather Map New forecast layout! Learn more

10-Day Weather Forecast

Advertisements
Track Severe Weather on mobile